Alma, West Virginia
Current Conditions -  °F | °C
As of 12:53 AM on Tuesday 27 Jan 2015 (Local Time) from KPKB Reporting Station
Overcast Overcast  
Wind Chill: 14°   Ceiling: 1800
Heat Index: 22°   Visibility: 10mi
Dew Point: 16°   Wind: 6mph
Humidity: 78%   Direction: 310°NW
Pressure: 29.93"   Gusts: NA
Location:  39.43°N, 80.84°W
Report Text: KPKB 270553Z AUTO 31005KT 10SM OVC018 M06/M09 A2993 RMK AO2 SLP144 T10561089 11033 21056 58003
Loading
Personal Weather Stations






























Interactive Weather Map New forecast layout! Learn more

10-Day Weather Forecast

Advertisements
Track Severe Weather on mobile